sensor_id;sensor_type;location;lat;lon;timestamp;pressure;altitude;pressure_sealevel;temperature;humidity
63088;BME280;49173;43.164;27.786;2024-03-23T00:56:20;100713.22;;;4.37;77.68
63088;BME280;49173;43.164;27.786;2024-03-23T00:58:46;100706.84;;;4.43;77.63
63088;BME280;49173;43.164;27.786;2024-03-23T01:01:11;100709.44;;;4.46;77.43
63088;BME280;49173;43.164;27.786;2024-03-23T01:03:37;100698.00;;;4.44;77.77
63088;BME280;49173;43.164;27.786;2024-03-23T01:06:03;100704.19;;;4.45;77.20
63088;BME280;49173;43.164;27.786;2024-03-23T01:08:29;100700.56;;;4.47;77.74
63088;BME280;49173;43.164;27.786;2024-03-23T01:10:56;100703.31;;;4.44;77.63
63088;BME280;49173;43.164;27.786;2024-03-23T01:13:21;100691.78;;;4.44;77.67
63088;BME280;49173;43.164;27.786;2024-03-23T01:15:51;100696.16;;;4.46;77.86
63088;BME280;49173;43.164;27.786;2024-03-23T01:18:18;100683.78;;;4.45;77.92
63088;BME280;49173;43.164;27.786;2024-03-23T01:20:43;100696.31;;;4.40;77.58
63088;BME280;49173;43.164;27.786;2024-03-23T01:23:10;100698.09;;;4.39;77.70
63088;BME280;49173;43.164;27.786;2024-03-23T01:25:36;100693.56;;;4.43;77.86
63088;BME280;49173;43.164;27.786;2024-03-23T01:28:01;100691.03;;;4.38;77.98
63088;BME280;49173;43.164;27.786;2024-03-23T01:30:27;100691.97;;;4.36;77.80
63088;BME280;49173;43.164;27.786;2024-03-23T01:32:53;100689.28;;;4.37;77.76
63088;BME280;49173;43.164;27.786;2024-03-23T01:35:19;100691.97;;;4.36;78.06
63088;BME280;49173;43.164;27.786;2024-03-23T01:37:45;100688.47;;;4.34;77.63
63088;BME280;49173;43.164;27.786;2024-03-23T01:40:11;100690.31;;;4.32;78.06
63088;BME280;49173;43.164;27.786;2024-03-23T01:42:39;100691.22;;;4.31;77.79
63088;BME280;49173;43.164;27.786;2024-03-23T01:45:07;100697.41;;;4.31;77.67
63088;BME280;49173;43.164;27.786;2024-03-23T01:47:34;100691.28;;;4.28;77.68
63088;BME280;49173;43.164;27.786;2024-03-23T01:50:00;100682.59;;;4.21;77.50
63088;BME280;49173;43.164;27.786;2024-03-23T01:52:27;100681.81;;;4.18;78.12
63088;BME280;49173;43.164;27.786;2024-03-23T01:54:53;100684.78;;;4.04;78.38
63088;BME280;49173;43.164;27.786;2024-03-23T01:57:19;100677.59;;;4.07;78.67
63088;BME280;49173;43.164;27.786;2024-03-23T01:59:48;100682.91;;;4.07;78.73
63088;BME280;49173;43.164;27.786;2024-03-23T02:02:14;100682.91;;;4.07;78.80
63088;BME280;49173;43.164;27.786;2024-03-23T02:04:43;100679.34;;;4.08;78.11
63088;BME280;49173;43.164;27.786;2024-03-23T02:07:08;100681.25;;;4.03;78.44
63088;BME280;49173;43.164;27.786;2024-03-23T02:09:35;100686.59;;;4.02;78.65
63088;BME280;49173;43.164;27.786;2024-03-23T02:12:04;100673.41;;;3.97;78.61
63088;BME280;49173;43.164;27.786;2024-03-23T02:14:30;100684.88;;;3.99;78.03
63088;BME280;49173;43.164;27.786;2024-03-23T02:16:56;100676.22;;;3.91;78.33
63088;BME280;49173;43.164;27.786;2024-03-23T02:19:22;100680.69;;;3.89;78.35
63088;BME280;49173;43.164;27.786;2024-03-23T02:21:50;100679.03;;;3.83;78.63
63088;BME280;49173;43.164;27.786;2024-03-23T02:24:16;100687.19;;;3.76;78.99
63088;BME280;49173;43.164;27.786;2024-03-23T02:26:41;100675.78;;;3.71;78.94
63088;BME280;49173;43.164;27.786;2024-03-23T02:29:07;100682.94;;;3.67;79.32
63088;BME280;49173;43.164;27.786;2024-03-23T02:31:35;100672.44;;;3.63;79.51
63088;BME280;49173;43.164;27.786;2024-03-23T02:34:01;100683.94;;;3.62;79.51
63088;BME280;49173;43.164;27.786;2024-03-23T02:36:27;100685.69;;;3.63;79.26
63088;BME280;49173;43.164;27.786;2024-03-23T02:38:53;100675.88;;;3.66;79.38
63088;BME280;49173;43.164;27.786;2024-03-23T02:41:19;100680.22;;;3.70;78.96
63088;BME280;49173;43.164;27.786;2024-03-23T02:43:49;100671.31;;;3.73;79.31
63088;BME280;49173;43.164;27.786;2024-03-23T02:46:15;100669.38;;;3.81;78.62
63088;BME280;49173;43.164;27.786;2024-03-23T02:48:41;100673.78;;;3.82;78.92
63088;BME280;49173;43.164;27.786;2024-03-23T02:51:07;100667.41;;;3.89;78.47
63088;BME280;49173;43.164;27.786;2024-03-23T02:53:33;100669.16;;;3.90;78.15
63088;BME280;49173;43.164;27.786;2024-03-23T02:55:59;100670.81;;;3.94;78.01
63088;BME280;49173;43.164;27.786;2024-03-23T02:58:25;100663.75;;;3.95;78.20
63088;BME280;49173;43.164;27.786;2024-03-23T03:00:51;100660.06;;;4.00;77.98
63088;BME280;49173;43.164;27.786;2024-03-23T03:03:17;100664.41;;;4.04;77.51
63088;BME280;49173;43.164;27.786;2024-03-23T03:05:43;100659.13;;;4.03;77.74
63088;BME280;49173;43.164;27.786;2024-03-23T03:08:09;100657.41;;;4.00;77.60
63088;BME280;49173;43.164;27.786;2024-03-23T03:10:35;100649.53;;;3.97;77.61
63088;BME280;49173;43.164;27.786;2024-03-23T03:13:02;100654.88;;;3.94;77.85
63088;BME280;49173;43.164;27.786;2024-03-23T03:15:28;100656.66;;;3.95;78.18
63088;BME280;49173;43.164;27.786;2024-03-23T03:17:54;100652.31;;;3.91;77.71
63088;BME280;49173;43.164;27.786;2024-03-23T03:20:19;100655.06;;;3.88;77.70
63088;BME280;49173;43.164;27.786;2024-03-23T03:22:47;100655.09;;;3.85;77.57
63088;BME280;49173;43.164;27.786;2024-03-23T03:25:13;100658.75;;;3.79;77.45
63088;BME280;49173;43.164;27.786;2024-03-23T03:27:39;100658.13;;;3.70;77.21
63088;BME280;49173;43.164;27.786;2024-03-23T03:30:05;100654.75;;;3.62;77.12
63088;BME280;49173;43.164;27.786;2024-03-23T03:32:33;100649.00;;;3.41;77.18
63088;BME280;49173;43.164;27.786;2024-03-23T03:34:59;100655.34;;;3.34;78.05
63088;BME280;49173;43.164;27.786;2024-03-23T03:37:25;100655.38;;;3.33;78.25
63088;BME280;49173;43.164;27.786;2024-03-23T03:39:50;100667.09;;;3.21;78.49
63088;BME280;49173;43.164;27.786;2024-03-23T03:42:16;100659.06;;;3.24;77.86
63088;BME280;49173;43.164;27.786;2024-03-23T03:44:42;100661.78;;;3.21;78.18
63088;BME280;49173;43.164;27.786;2024-03-23T03:47:08;100676.31;;;3.01;78.50
63088;BME280;49173;43.164;27.786;2024-03-23T03:49:34;100676.31;;;3.01;78.87
63088;BME280;49173;43.164;27.786;2024-03-23T03:52:00;100673.00;;;2.90;78.79
63088;BME280;49173;43.164;27.786;2024-03-23T03:54:27;100675.66;;;2.90;79.28
63088;BME280;49173;43.164;27.786;2024-03-23T03:56:53;100677.41;;;2.91;78.92
63088;BME280;49173;43.164;27.786;2024-03-23T03:59:19;100676.50;;;2.92;79.71
63088;BME280;49173;43.164;27.786;2024-03-23T04:01:46;100678.47;;;2.81;79.84
63088;BME280;49173;43.164;27.786;2024-03-23T04:04:12;100675.91;;;2.77;80.53
63088;BME280;49173;43.164;27.786;2024-03-23T04:06:39;100678.41;;;2.84;80.67
63088;BME280;49173;43.164;27.786;2024-03-23T04:09:05;100679.41;;;2.79;81.12
63088;BME280;49173;43.164;27.786;2024-03-23T04:11:32;100665.19;;;2.83;81.37
63088;BME280;49173;43.164;27.786;2024-03-23T04:13:57;100673.91;;;2.89;81.03
63088;BME280;49173;43.164;27.786;2024-03-23T04:16:34;100674.78;;;2.88;81.23
63088;BME280;49173;43.164;27.786;2024-03-23T04:19:00;100674.78;;;2.88;81.73
63088;BME280;49173;43.164;27.786;2024-03-23T04:21:26;100675.59;;;2.93;81.53
63088;BME280;49173;43.164;27.786;2024-03-23T04:23:52;100683.53;;;2.93;81.90
63088;BME280;49173;43.164;27.786;2024-03-23T04:26:18;100684.16;;;3.08;81.87
63088;BME280;49173;43.164;27.786;2024-03-23T04:28:43;100677.88;;;3.13;82.02
63088;BME280;49173;43.164;27.786;2024-03-23T04:31:09;100677.63;;;3.24;81.50
63088;BME280;49173;43.164;27.786;2024-03-23T04:33:35;100684.28;;;3.46;81.83
63088;BME280;49173;43.164;27.786;2024-03-23T04:36:01;100681.69;;;3.83;81.61
63088;BME280;49173;43.164;27.786;2024-03-23T04:38:28;100687.81;;;4.26;80.01
63088;BME280;49173;43.164;27.786;2024-03-23T04:40:58;100693.53;;;4.79;78.93
63088;BME280;49173;43.164;27.786;2024-03-23T04:43:27;100687.66;;;5.33;77.19
63088;BME280;49173;43.164;27.786;2024-03-23T04:45:54;100676.25;;;5.88;76.14
63088;BME280;49173;43.164;27.786;2024-03-23T04:48:23;100680.84;;;6.67;73.56
63088;BME280;49173;43.164;27.786;2024-03-23T04:50:49;100671.25;;;7.60;71.06
63088;BME280;49173;43.164;27.786;2024-03-23T04:53:16;100678.34;;;8.51;67.57
63088;BME280;49173;43.164;27.786;2024-03-23T04:55:42;100673.81;;;9.16;63.97
63088;BME280;49173;43.164;27.786;2024-03-23T04:58:08;100676.25;;;9.41;62.83
63088;BME280;49173;43.164;27.786;2024-03-23T05:00:34;100664.34;;;9.67;61.59
63088;BME280;49173;43.164;27.786;2024-03-23T05:03:00;100669.00;;;10.01;61.04
63088;BME280;49173;43.164;27.786;2024-03-23T05:05:26;100668.00;;;10.40;59.61
63088;BME280;49173;43.164;27.786;2024-03-23T05:07:52;100667.28;;;10.72;59.27
63088;BME280;49173;43.164;27.786;2024-03-23T05:10:17;100661.47;;;11.32;57.66
63088;BME280;49173;43.164;27.786;2024-03-23T05:12:43;100659.22;;;12.22;54.88
63088;BME280;49173;43.164;27.786;2024-03-23T05:15:11;100658.97;;;13.17;52.48
63088;BME280;49173;43.164;27.786;2024-03-23T05:17:38;100654.66;;;14.14;50.15
63088;BME280;49173;43.164;27.786;2024-03-23T05:20:05;100656.41;;;14.96;47.72
63088;BME280;49173;43.164;27.786;2024-03-23T05:22:39;100653.97;;;15.44;45.19
63088;BME280;49173;43.164;27.786;2024-03-23T05:25:05;100652.63;;;15.50;45.21
63088;BME280;49173;43.164;27.786;2024-03-23T05:27:32;100641.06;;;15.60;44.66
63088;BME280;49173;43.164;27.786;2024-03-23T05:29:59;100646.44;;;15.99;43.94
63088;BME280;49173;43.164;27.786;2024-03-23T05:32:24;100642.13;;;16.57;43.40
63088;BME280;49173;43.164;27.786;2024-03-23T05:34:50;100644.97;;;17.25;41.03
63088;BME280;49173;43.164;27.786;2024-03-23T05:37:22;100638.50;;;17.95;39.07
63088;BME280;49173;43.164;27.786;2024-03-23T05:39:48;100643.09;;;18.49;37.29
63088;BME280;49173;43.164;27.786;2024-03-23T05:42:18;100631.19;;;18.93;37.79
63088;BME280;49173;43.164;27.786;2024-03-23T05:44:44;100635.97;;;19.22;37.22
63088;BME280;49173;43.164;27.786;2024-03-23T05:47:11;100629.00;;;19.29;37.10
63088;BME280;49173;43.164;27.786;2024-03-23T05:49:38;100637.69;;;19.02;37.62
63088;BME280;49173;43.164;27.786;2024-03-23T05:52:04;100632.91;;;18.62;38.66
63088;BME280;49173;43.164;27.786;2024-03-23T05:54:30;100638.81;;;18.24;39.49
63088;BME280;49173;43.164;27.786;2024-03-23T05:56:59;100637.91;;;17.92;39.79
63088;BME280;49173;43.164;27.786;2024-03-23T05:59:27;100633.91;;;17.51;40.70
63088;BME280;49173;43.164;27.786;2024-03-23T06:01:53;100636.78;;;17.03;41.08
63088;BME280;49173;43.164;27.786;2024-03-23T06:04:23;100633.34;;;16.53;42.95
63088;BME280;49173;43.164;27.786;2024-03-23T06:06:50;100625.44;;;16.02;43.70
63088;BME280;49173;43.164;27.786;2024-03-23T06:09:21;100634.72;;;15.61;43.96
63088;BME280;49173;43.164;27.786;2024-03-23T06:11:48;100623.97;;;15.22;45.52
63088;BME280;49173;43.164;27.786;2024-03-23T06:14:14;100630.44;;;14.81;46.11
63088;BME280;49173;43.164;27.786;2024-03-23T06:16:42;100629.59;;;14.53;46.62
63088;BME280;49173;43.164;27.786;2024-03-23T06:19:08;100621.34;;;14.28;48.01
63088;BME280;49173;43.164;27.786;2024-03-23T06:21:44;100628.25;;;14.05;49.39
63088;BME280;49173;43.164;27.786;2024-03-23T06:24:14;100626.09;;;13.83;50.79
63088;BME280;49173;43.164;27.786;2024-03-23T06:26:42;100627.94;;;13.68;52.24
63088;BME280;49173;43.164;27.786;2024-03-23T06:29:08;100627.34;;;13.63;52.99
63088;BME280;49173;43.164;27.786;2024-03-23T06:31:41;100633.81;;;13.61;52.61
63088;BME280;49173;43.164;27.786;2024-03-23T06:34:08;100629.78;;;13.54;53.28
63088;BME280;49173;43.164;27.786;2024-03-23T06:36:36;100630.16;;;13.48;53.12
63088;BME280;49173;43.164;27.786;2024-03-23T06:39:04;100630.44;;;13.43;53.29
63088;BME280;49173;43.164;27.786;2024-03-23T06:41:31;100626.59;;;13.33;53.64
63088;BME280;49173;43.164;27.786;2024-03-23T06:44:01;100632.06;;;13.31;54.30
63088;BME280;49173;43.164;27.786;2024-03-23T06:46:27;100634.75;;;13.31;53.24
63088;BME280;49173;43.164;27.786;2024-03-23T06:48:54;100633.03;;;13.30;52.46
63088;BME280;49173;43.164;27.786;2024-03-23T06:51:21;100634.28;;;13.25;52.36
63088;BME280;49173;43.164;27.786;2024-03-23T06:53:53;100627.91;;;13.11;52.11
63088;BME280;49173;43.164;27.786;2024-03-23T06:56:20;100627.97;;;13.10;52.65
63088;BME280;49173;43.164;27.786;2024-03-23T06:58:47;100636.03;;;13.10;53.04
63088;BME280;49173;43.164;27.786;2024-03-23T07:01:14;100635.19;;;13.09;52.27
63088;BME280;49173;43.164;27.786;2024-03-23T07:03:40;100620.94;;;13.07;53.23
63088;BME280;49173;43.164;27.786;2024-03-23T07:06:11;100627.03;;;13.11;53.42
63088;BME280;49173;43.164;27.786;2024-03-23T07:08:38;100625.75;;;13.02;51.81
63088;BME280;49173;43.164;27.786;2024-03-23T07:11:06;100622.75;;;12.92;51.67
63088;BME280;49173;43.164;27.786;2024-03-23T07:13:33;100621.19;;;12.88;51.27
63088;BME280;49173;43.164;27.786;2024-03-23T07:16:05;100630.53;;;12.83;53.00
63088;BME280;49173;43.164;27.786;2024-03-23T07:18:32;100622.72;;;12.78;52.32
63088;BME280;49173;43.164;27.786;2024-03-23T07:21:00;100628.66;;;12.69;51.45
63088;BME280;49173;43.164;27.786;2024-03-23T07:23:27;100619.38;;;12.59;52.09
63088;BME280;49173;43.164;27.786;2024-03-23T07:26:00;100616.00;;;12.55;54.03
63088;BME280;49173;43.164;27.786;2024-03-23T07:28:28;100615.97;;;12.41;53.12
63088;BME280;49173;43.164;27.786;2024-03-23T07:31:07;100611.78;;;12.35;54.53
63088;BME280;49173;43.164;27.786;2024-03-23T07:33:43;100610.75;;;12.38;55.10
63088;BME280;49173;43.164;27.786;2024-03-23T07:36:10;100600.84;;;12.38;54.62
63088;BME280;49173;43.164;27.786;2024-03-23T07:38:40;100606.66;;;12.31;54.02
63088;BME280;49173;43.164;27.786;2024-03-23T07:41:19;100610.00;;;12.20;54.71
63088;BME280;49173;43.164;27.786;2024-03-23T07:43:49;100606.84;;;12.12;55.14
63088;BME280;49173;43.164;27.786;2024-03-23T07:46:16;100605.41;;;12.06;55.18
63088;BME280;49173;43.164;27.786;2024-03-23T07:48:45;100608.53;;;11.99;54.95
63088;BME280;49173;43.164;27.786;2024-03-23T07:51:20;100601.50;;;11.96;55.67
63088;BME280;49173;43.164;27.786;2024-03-23T07:53:51;100597.16;;;11.94;55.47
63088;BME280;49173;43.164;27.786;2024-03-23T07:56:19;100599.00;;;11.93;56.46
63088;BME280;49173;43.164;27.786;2024-03-23T07:58:48;100602.66;;;11.92;56.96
63088;BME280;49173;43.164;27.786;2024-03-23T08:01:18;100600.38;;;11.85;55.78
63088;BME280;49173;43.164;27.786;2024-03-23T08:03:46;100607.75;;;11.81;56.16
63088;BME280;49173;43.164;27.786;2024-03-23T08:06:18;100592.88;;;11.74;55.96
63088;BME280;49173;43.164;27.786;2024-03-23T08:08:55;100597.28;;;11.75;55.44
63088;BME280;49173;43.164;27.786;2024-03-23T08:11:32;100598.97;;;11.77;55.11
63088;BME280;49173;43.164;27.786;2024-03-23T08:14:04;100592.34;;;11.67;55.71
63088;BME280;49173;43.164;27.786;2024-03-23T08:16:30;100592.59;;;11.63;56.45
63088;BME280;49173;43.164;27.786;2024-03-23T08:18:58;100591.66;;;11.64;56.45
63088;BME280;49173;43.164;27.786;2024-03-23T08:21:27;100590.53;;;11.68;57.14
63088;BME280;49173;43.164;27.786;2024-03-23T08:23:54;100584.91;;;11.72;56.27
63088;BME280;49173;43.164;27.786;2024-03-23T08:26:20;100589.31;;;11.73;56.38
63088;BME280;49173;43.164;27.786;2024-03-23T08:28:51;100578.38;;;11.76;56.52
63088;BME280;49173;43.164;27.786;2024-03-23T08:31:17;100577.53;;;11.76;56.73
63088;BME280;49173;43.164;27.786;2024-03-23T08:33:44;100578.03;;;11.67;56.46
63088;BME280;49173;43.164;27.786;2024-03-23T08:36:11;100571.03;;;11.64;56.30
63088;BME280;49173;43.164;27.786;2024-03-23T08:38:43;100562.63;;;11.70;57.42
63088;BME280;49173;43.164;27.786;2024-03-23T08:41:10;100569.53;;;11.74;56.98
63088;BME280;49173;43.164;27.786;2024-03-23T08:43:39;100563.22;;;11.75;57.39
63088;BME280;49173;43.164;27.786;2024-03-23T08:46:13;100561.22;;;11.79;57.48
63088;BME280;49173;43.164;27.786;2024-03-23T08:48:45;100560.28;;;11.80;57.66
63088;BME280;49173;43.164;27.786;2024-03-23T08:51:19;100569.50;;;11.92;59.55
63088;BME280;49173;43.164;27.786;2024-03-23T08:53:45;100561.66;;;12.03;56.61
63088;BME280;49173;43.164;27.786;2024-03-23T08:56:15;100561.41;;;12.07;56.89
63088;BME280;49173;43.164;27.786;2024-03-23T08:58:45;100554.97;;;12.10;55.59
63088;BME280;49173;43.164;27.786;2024-03-23T09:01:15;100557.59;;;11.96;55.04
63088;BME280;49173;43.164;27.786;2024-03-23T09:03:43;100549.94;;;12.04;53.99
63088;BME280;49173;43.164;27.786;2024-03-23T09:06:14;100542.84;;;12.03;52.85
63088;BME280;49173;43.164;27.786;2024-03-23T09:08:43;100545.38;;;12.06;53.99
63088;BME280;49173;43.164;27.786;2024-03-23T09:11:14;100540.91;;;12.05;53.04
63088;BME280;49173;43.164;27.786;2024-03-23T09:13:41;100543.19;;;12.13;54.42
63088;BME280;49173;43.164;27.786;2024-03-23T09:16:10;100539.94;;;12.22;54.51
63088;BME280;49173;43.164;27.786;2024-03-23T09:18:38;100522.22;;;12.33;53.78
63088;BME280;49173;43.164;27.786;2024-03-23T09:21:14;100521.19;;;12.50;50.84
63088;BME280;49173;43.164;27.786;2024-03-23T09:23:45;100526.69;;;12.63;52.80
63088;BME280;49173;43.164;27.786;2024-03-23T09:26:12;100514.38;;;12.73;50.85
63088;BME280;49173;43.164;27.786;2024-03-23T09:28:39;100509.22;;;12.84;51.14
63088;BME280;49173;43.164;27.786;2024-03-23T09:31:07;100507.78;;;12.93;50.44
63088;BME280;49173;43.164;27.786;2024-03-23T09:33:52;100504.81;;;12.98;49.54
63088;BME280;49173;43.164;27.786;2024-03-23T09:36:22;100505.94;;;12.93;47.85
63088;BME280;49173;43.164;27.786;2024-03-23T09:38:51;100493.44;;;12.78;45.54
63088;BME280;49173;43.164;27.786;2024-03-23T09:41:21;100488.53;;;12.71;45.55
63088;BME280;49173;43.164;27.786;2024-03-23T09:43:57;100486.44;;;12.76;46.97
63088;BME280;49173;43.164;27.786;2024-03-23T09:46:32;100479.00;;;12.79;47.34
63088;BME280;49173;43.164;27.786;2024-03-23T09:49:03;100476.53;;;12.90;49.26
63088;BME280;49173;43.164;27.786;2024-03-23T09:51:40;100479.75;;;13.10;48.63
63088;BME280;49173;43.164;27.786;2024-03-23T09:54:09;100482.47;;;13.24;48.22
63088;BME280;49173;43.164;27.786;2024-03-23T09:56:39;100469.19;;;13.35;48.23
63088;BME280;49173;43.164;27.786;2024-03-23T09:59:09;100472.34;;;13.42;47.96
63088;BME280;49173;43.164;27.786;2024-03-23T10:01:37;100467.53;;;13.47;47.94
63088;BME280;49173;43.164;27.786;2024-03-23T10:04:38;100464.22;;;13.56;46.58
63088;BME280;49173;43.164;27.786;2024-03-23T10:07:18;100455.31;;;13.41;45.51
63088;BME280;49173;43.164;27.786;2024-03-23T10:09:47;100452.25;;;13.33;46.94
63088;BME280;49173;43.164;27.786;2024-03-23T10:12:26;100445.88;;;13.34;45.91
63088;BME280;49173;43.164;27.786;2024-03-23T10:14:54;100452.03;;;13.36;47.31
63088;BME280;49173;43.164;27.786;2024-03-23T10:17:24;100447.22;;;13.41;47.23
63088;BME280;49173;43.164;27.786;2024-03-23T10:19:55;100442.94;;;13.52;46.46
63088;BME280;49173;43.164;27.786;2024-03-23T10:22:28;100436.28;;;13.57;46.31
63088;BME280;49173;43.164;27.786;2024-03-23T10:25:08;100415.72;;;13.69;45.97
63088;BME280;49173;43.164;27.786;2024-03-23T10:27:38;100414.66;;;13.71;47.33
63088;BME280;49173;43.164;27.786;2024-03-23T10:30:12;100417.28;;;13.86;47.24
63088;BME280;49173;43.164;27.786;2024-03-23T10:32:41;100409.00;;;13.89;45.93
63088;BME280;49173;43.164;27.786;2024-03-23T10:37:42;100410.03;;;13.86;45.35
63088;BME280;49173;43.164;27.786;2024-03-23T10:40:12;100402.63;;;13.90;44.92
63088;BME280;49173;43.164;27.786;2024-03-23T10:42:39;100407.03;;;13.91;47.06
63088;BME280;49173;43.164;27.786;2024-03-23T10:45:07;100397.13;;;13.91;43.64
63088;BME280;49173;43.164;27.786;2024-03-23T10:47:38;100395.16;;;13.93;44.57
63088;BME280;49173;43.164;27.786;2024-03-23T10:50:08;100398.13;;;14.03;46.10
63088;BME280;49173;43.164;27.786;2024-03-23T10:52:36;100385.59;;;14.15;46.20
63088;BME280;49173;43.164;27.786;2024-03-23T10:55:05;100375.03;;;14.12;47.22
63088;BME280;49173;43.164;27.786;2024-03-23T10:57:56;100379.66;;;14.10;45.54
63088;BME280;49173;43.164;27.786;2024-03-23T11:00:24;100368.66;;;14.13;44.07
63088;BME280;49173;43.164;27.786;2024-03-23T11:02:50;100362.81;;;14.19;43.86
63088;BME280;49173;43.164;27.786;2024-03-23T11:07:52;100367.25;;;14.20;43.60
63088;BME280;49173;43.164;27.786;2024-03-23T11:10:30;100356.13;;;14.24;45.00
63088;BME280;49173;43.164;27.786;2024-03-23T11:13:22;100361.19;;;14.29;45.55
63088;BME280;49173;43.164;27.786;2024-03-23T11:15:54;100350.63;;;14.39;47.35
63088;BME280;49173;43.164;27.786;2024-03-23T11:18:23;100344.59;;;14.48;46.05
63088;BME280;49173;43.164;27.786;2024-03-23T11:20:58;100338.00;;;14.52;45.35
63088;BME280;49173;43.164;27.786;2024-03-23T11:23:28;100339.06;;;14.62;45.81
63088;BME280;49173;43.164;27.786;2024-03-23T11:25:53;100340.13;;;14.72;46.25
63088;BME280;49173;43.164;27.786;2024-03-23T11:28:19;100332.44;;;14.79;44.26
63088;BME280;49173;43.164;27.786;2024-03-23T11:30:48;100331.56;;;14.78;45.36
63088;BME280;49173;43.164;27.786;2024-03-23T11:33:18;100330.69;;;14.78;44.47
63088;BME280;49173;43.164;27.786;2024-03-23T11:35:47;100322.28;;;14.82;46.77
63088;BME280;49173;43.164;27.786;2024-03-23T11:38:20;100321.16;;;14.85;45.89
63088;BME280;49173;43.164;27.786;2024-03-23T11:40:52;100321.72;;;14.90;45.81
63088;BME280;49173;43.164;27.786;2024-03-23T11:43:24;100313.03;;;14.98;47.56
63088;BME280;49173;43.164;27.786;2024-03-23T11:45:53;100314.19;;;15.06;46.87
63088;BME280;49173;43.164;27.786;2024-03-23T11:48:22;100313.72;;;15.13;46.65
63088;BME280;49173;43.164;27.786;2024-03-23T11:50:50;100308.59;;;15.21;45.86
63088;BME280;49173;43.164;27.786;2024-03-23T11:53:22;100302.13;;;15.23;44.97
63088;BME280;49173;43.164;27.786;2024-03-23T11:55:55;100301.06;;;15.13;46.49
63088;BME280;49173;43.164;27.786;2024-03-23T11:58:24;100297.84;;;15.08;45.70
63088;BME280;49173;43.164;27.786;2024-03-23T12:00:57;100288.66;;;15.10;46.53
63088;BME280;49173;43.164;27.786;2024-03-23T12:03:33;100286.63;;;15.25;46.29
63088;BME280;49173;43.164;27.786;2024-03-23T12:06:01;100290.59;;;15.32;45.46
63088;BME280;49173;43.164;27.786;2024-03-23T12:08:34;100282.16;;;15.37;45.41
63088;BME280;49173;43.164;27.786;2024-03-23T12:11:15;100277.00;;;15.45;44.70
63088;BME280;49173;43.164;27.786;2024-03-23T12:13:45;100271.34;;;15.48;45.05
63088;BME280;49173;43.164;27.786;2024-03-23T12:16:17;100254.00;;;15.39;44.01
63088;BME280;49173;43.164;27.786;2024-03-23T12:18:49;100254.50;;;15.45;45.37
63088;BME280;49173;43.164;27.786;2024-03-23T12:21:20;100251.56;;;15.48;45.04
63088;BME280;49173;43.164;27.786;2024-03-23T12:23:51;100245.69;;;15.54;45.49
63088;BME280;49173;43.164;27.786;2024-03-23T12:26:19;100248.78;;;15.60;45.84
63088;BME280;49173;43.164;27.786;2024-03-23T12:28:46;100238.88;;;15.72;44.96
63088;BME280;49173;43.164;27.786;2024-03-23T12:31:12;100235.31;;;15.83;44.35
63088;BME280;49173;43.164;27.786;2024-03-23T12:33:38;100226.09;;;15.97;45.07
63088;BME280;49173;43.164;27.786;2024-03-23T12:36:04;100237.03;;;16.06;44.67
63088;BME280;49173;43.164;27.786;2024-03-23T12:38:38;100227.44;;;16.13;44.43
63088;BME280;49173;43.164;27.786;2024-03-23T12:41:03;100229.66;;;16.19;45.31
63088;BME280;49173;43.164;27.786;2024-03-23T12:43:30;100224.63;;;16.26;44.21
63088;BME280;49173;43.164;27.786;2024-03-23T12:45:57;100223.28;;;16.32;44.32
63088;BME280;49173;43.164;27.786;2024-03-23T12:48:29;100220.56;;;16.32;43.20
63088;BME280;49173;43.164;27.786;2024-03-23T12:51:05;100220.81;;;16.29;43.87
63088;BME280;49173;43.164;27.786;2024-03-23T12:53:37;100220.81;;;16.29;44.01
63088;BME280;49173;43.164;27.786;2024-03-23T12:56:06;100212.94;;;16.26;44.39
63088;BME280;49173;43.164;27.786;2024-03-23T12:58:33;100209.63;;;16.22;44.73
63088;BME280;49173;43.164;27.786;2024-03-23T13:01:14;100210.72;;;16.19;44.03
63088;BME280;49173;43.164;27.786;2024-03-23T13:03:54;100214.06;;;16.23;44.02
63088;BME280;49173;43.164;27.786;2024-03-23T13:06:21;100213.91;;;16.25;44.75
63088;BME280;49173;43.164;27.786;2024-03-23T13:08:47;100213.78;;;16.26;44.81
63088;BME280;49173;43.164;27.786;2024-03-23T13:11:21;100206.28;;;16.30;45.30
63088;BME280;49173;43.164;27.786;2024-03-23T13:14:00;100209.84;;;16.30;44.92
63088;BME280;49173;43.164;27.786;2024-03-23T13:16:30;100211.31;;;16.34;45.25
63088;BME280;49173;43.164;27.786;2024-03-23T13:18:58;100192.25;;;16.25;44.85
63088;BME280;49173;43.164;27.786;2024-03-23T13:21:29;100199.03;;;16.19;45.47
63088;BME280;49173;43.164;27.786;2024-03-23T13:23:56;100195.94;;;16.24;46.32
63088;BME280;49173;43.164;27.786;2024-03-23T13:26:22;100191.16;;;16.16;45.45
63088;BME280;49173;43.164;27.786;2024-03-23T13:28:48;100193.38;;;16.11;46.48
63088;BME280;49173;43.164;27.786;2024-03-23T13:31:14;100188.22;;;15.97;46.25
63088;BME280;49173;43.164;27.786;2024-03-23T13:33:41;100181.66;;;15.77;45.55
63088;BME280;49173;43.164;27.786;2024-03-23T13:36:12;100176.75;;;15.71;46.48
63088;BME280;49173;43.164;27.786;2024-03-23T13:38:45;100182.16;;;15.71;47.90
63088;BME280;49173;43.164;27.786;2024-03-23T13:41:11;100170.25;;;15.73;47.19
63088;BME280;49173;43.164;27.786;2024-03-23T13:43:38;100173.44;;;15.67;46.63
63088;BME280;49173;43.164;27.786;2024-03-23T13:46:05;100174.56;;;15.64;48.16
63088;BME280;49173;43.164;27.786;2024-03-23T13:48:33;100168.88;;;15.68;46.93
63088;BME280;49173;43.164;27.786;2024-03-23T13:51:03;100172.53;;;15.55;46.83